Peshawar Weather



Peshawar's Current Weather

Temprature 25o haze

haze

Rain: 0 %

Min Temprature25o
Max Temprature25o
Humidity50
Wind Speed3.1 m/h
Sun Rise06:20:27
Sun Set17:37:06
Current Time: 18-Oct-2019 15:54:39
Lat/Lon: 34.01, 71.58




Peshawar's Geo Location



Peshawar's Weather Forecast

Time Overall Temp Min Temp Max Temp Humidity Wind Speed Rain
18-Oct-2019 (Fri)
17:00:00 overcast clouds 25.470 25.470 27.190 32 2.02 m/h 0 %
20:00:00 few clouds 24.280 24.280 25.570 36 1.67 m/h 0 %
23:00:00 few clouds 23.640 23.640 24.498 37 1.46 m/h 0 %
19-Oct-2019 (Sat)
02:00:00 light rain 22.400 22.400 22.828 42 1.53 m/h 31 %
05:00:00 light rain 21.753 21.753 21.753 48 1.13 m/h 6 %
08:00:00 overcast clouds 22.651 22.651 22.651 42 1.06 m/h 0 %
11:00:00 overcast clouds 26.470 26.470 26.470 32 1.5 m/h 0 %
14:00:00 scattered clouds 29.226 29.226 29.226 25 2.04 m/h 0 %
17:00:00 few clouds 28.902 28.902 28.902 25 1.71 m/h 0 %
20:00:00 few clouds 25.698 25.698 25.698 34 1.49 m/h 0 %
23:00:00 clear sky 23.287 23.287 23.287 41 1.72 m/h 0 %
20-Oct-2019 (Sun)
02:00:00 clear sky 22.387 22.387 22.387 43 0.91 m/h 0 %
05:00:00 clear sky 21.714 21.714 21.714 44 0.9 m/h 0 %
08:00:00 clear sky 22.902 22.902 22.902 39 1.21 m/h 0 %
11:00:00 clear sky 26.820 26.820 26.820 30 1.29 m/h 0 %
14:00:00 overcast clouds 29.462 29.462 29.462 23 1.52 m/h 0 %
17:00:00 overcast clouds 29.118 29.118 29.118 24 1.24 m/h 0 %
20:00:00 overcast clouds 26.152 26.152 26.152 31 1.96 m/h 0 %
23:00:00 broken clouds 24.297 24.297 24.297 37 0.52 m/h 0 %
21-Oct-2019 (Mon)
02:00:00 clear sky 22.820 22.820 22.820 40 1.67 m/h 0 %
05:00:00 clear sky 21.511 21.511 21.511 42 1.07 m/h 0 %
08:00:00 clear sky 22.899 22.899 22.899 37 0.26 m/h 0 %
11:00:00 clear sky 26.917 26.917 26.917 27 1.9 m/h 0 %
14:00:00 clear sky 29.395 29.395 29.395 22 2.08 m/h 0 %
17:00:00 clear sky 28.994 28.994 28.994 25 1.92 m/h 0 %
20:00:00 clear sky 25.804 25.804 25.804 33 1.34 m/h 0 %
23:00:00 clear sky 24.410 24.410 24.410 36 1.18 m/h 0 %
22-Oct-2019 (Tue)
02:00:00 clear sky 22.986 22.986 22.986 39 1.09 m/h 0 %
05:00:00 clear sky 21.989 21.989 21.989 41 0.82 m/h 0 %
08:00:00 clear sky 23.472 23.472 23.472 36 0.63 m/h 0 %
11:00:00 clear sky 27.289 27.289 27.289 28 1.47 m/h 0 %
14:00:00 overcast clouds 29.439 29.439 29.439 23 1.95 m/h 0 %
17:00:00 overcast clouds 28.952 28.952 28.952 25 1.71 m/h 0 %
20:00:00 broken clouds 26.150 26.150 26.150 31 1.52 m/h 0 %
23:00:00 overcast clouds 25.259 25.259 25.259 34 0.65 m/h 0 %
23-Oct-2019 (Wed)
02:00:00 broken clouds 23.436 23.436 23.436 39 1.59 m/h 0 %
05:00:00 light rain 22.257 22.257 22.257 43 1.07 m/h 75 %
08:00:00 broken clouds 23.329 23.329 23.329 39 1.79 m/h 0 %
11:00:00 light rain 26.155 26.155 26.155 31 2.23 m/h 6 %
14:00:00 clear sky 28.589 28.589 28.589 22 2.46 m/h 0 %

Famous Cities (61)